createdAt,value
2019-02-08T00:03:38.022Z,55.46
2019-02-08T00:06:27.287Z,55.57
2019-02-08T00:09:16.148Z,55.71
2019-02-08T00:12:05.234Z,55.92
2019-02-08T00:14:54.082Z,56.02
2019-02-08T00:17:43.099Z,56.33
2019-02-08T00:20:32.014Z,56.34
2019-02-08T00:23:26.019Z,56.25
2019-02-08T00:26:04.878Z,56.46
2019-02-08T00:28:53.772Z,56.48
2019-02-08T00:31:44.370Z,56.49
2019-02-08T00:34:33.216Z,56.48
2019-02-08T00:37:22.087Z,56.59
2019-02-08T00:40:31.831Z,56.43
2019-02-08T00:43:20.921Z,56.58
2019-02-08T00:46:09.876Z,56.58
2019-02-08T00:48:58.716Z,56.53
2019-02-08T00:51:47.556Z,56.56
2019-02-08T00:54:36.435Z,56.61
2019-02-08T00:57:25.365Z,56.65
2019-02-08T01:00:35.099Z,56.68
2019-02-08T01:03:23.988Z,56.72
2019-02-08T01:06:12.955Z,56.57
2019-02-08T01:09:01.795Z,56.71
2019-02-08T01:11:50.667Z,56.69
2019-02-08T01:14:39.578Z,56.79
2019-02-08T01:17:28.409Z,56.70
2019-02-08T01:20:38.422Z,56.71
2019-02-08T01:23:27.332Z,56.78
2019-02-08T01:26:16.137Z,56.83
2019-02-08T01:29:05.351Z,57.02
2019-02-08T01:31:54.210Z,57.08
2019-02-08T01:37:51.622Z,57.19
2019-02-08T01:40:40.622Z,57.09
2019-02-08T01:43:29.475Z,57.11
2019-02-08T01:46:18.358Z,57.23
2019-02-08T01:49:38.552Z,57.16
2019-02-08T01:52:10.107Z,57.25
2019-02-08T01:54:59.029Z,57.48
2019-02-08T01:58:09.071Z,57.33
2019-02-08T02:00:57.984Z,57.41
2019-02-08T02:03:46.902Z,57.44
2019-02-08T02:06:35.749Z,57.68
2019-02-08T02:09:24.605Z,57.68
2019-02-08T02:12:13.615Z,57.67
2019-02-08T02:15:02.417Z,57.76
2019-02-08T02:17:51.406Z,57.91
2019-02-08T02:21:01.109Z,58.03
2019-02-08T02:23:30.597Z,58.08
2019-02-08T02:26:12.386Z,58.25
2019-02-08T02:29:01.200Z,58.21
2019-02-08T02:31:50.109Z,58.38
2019-02-08T02:34:38.930Z,58.33
2019-02-08T02:37:27.885Z,58.38
2019-02-08T02:40:37.623Z,58.48
2019-02-08T02:43:26.466Z,58.42
2019-02-08T02:46:15.311Z,58.49
2019-02-08T02:49:04.183Z,58.48
2019-02-08T02:51:46.344Z,58.52
2019-02-08T02:54:35.276Z,58.46
2019-02-08T02:57:17.274Z,58.51
2019-02-08T03:00:27.028Z,58.64
2019-02-08T03:03:16.198Z,58.62
2019-02-08T03:06:05.330Z,58.66
2019-02-08T03:08:54.244Z,58.69
2019-02-08T03:11:43.053Z,58.82
2019-02-08T03:14:31.958Z,58.82
2019-02-08T03:17:20.763Z,58.98
2019-02-08T03:20:30.521Z,59.01
2019-02-08T03:23:00.145Z,59.16
2019-02-08T03:25:49.113Z,59.07
2019-02-08T03:28:38.054Z,59.33
2019-02-08T03:31:26.969Z,59.39
2019-02-08T03:34:15.807Z,59.75
2019-02-08T03:37:04.666Z,59.84
2019-02-08T03:39:53.500Z,59.96
2019-02-08T03:42:42.316Z,59.92
2019-02-08T03:48:26.772Z,60.03
2019-02-08T03:51:15.632Z,60.00
2019-02-08T03:54:04.710Z,59.80
2019-02-08T03:56:53.531Z,59.78
2019-02-08T03:59:42.415Z,59.75
2019-02-08T04:02:31.326Z,59.71
2019-02-08T04:05:20.233Z,59.84
2019-02-08T04:08:09.151Z,59.99
2019-02-08T04:10:58.014Z,59.94
2019-02-08T04:13:46.887Z,59.94
2019-02-08T04:16:35.696Z,59.98
2019-02-08T04:19:17.619Z,60.15
2019-02-08T04:22:06.540Z,60.16
2019-02-08T04:24:55.347Z,60.18
2019-02-08T04:27:44.247Z,60.27
2019-02-08T04:30:33.469Z,60.20
2019-02-08T04:33:15.009Z,60.24
2019-02-08T04:36:03.893Z,60.27
2019-02-08T04:38:52.762Z,60.12
2019-02-08T04:41:41.539Z,60.09
2019-02-08T04:44:30.365Z,60.18
2019-02-08T04:47:19.239Z,60.19
2019-02-08T04:50:28.990Z,60.06
2019-02-08T04:53:17.840Z,60.28
2019-02-08T04:55:47.298Z,60.36
2019-02-08T04:58:36.135Z,60.18
2019-02-08T05:01:24.965Z,60.22
2019-02-08T05:04:06.626Z,60.31
2019-02-08T05:06:55.439Z,60.26
2019-02-08T05:09:44.346Z,60.33
2019-02-08T05:12:33.156Z,60.36
2019-02-08T05:15:23.186Z,60.32
2019-02-08T05:18:12.855Z,60.38
2019-02-08T05:21:01.733Z,60.56
2019-02-08T05:23:50.586Z,60.40
2019-02-08T05:26:30.385Z,60.49
2019-02-08T05:29:19.301Z,60.47
2019-02-08T05:32:08.175Z,60.54
2019-02-08T05:34:57.084Z,60.53
2019-02-08T05:37:45.951Z,60.51
2019-02-08T05:40:34.843Z,60.51
2019-02-08T05:43:23.765Z,60.55
2019-02-08T05:46:12.632Z,60.61
2019-02-08T05:49:01.517Z,60.58
2019-02-08T05:51:50.316Z,60.58
2019-02-08T05:54:39.247Z,60.53
2019-02-08T05:57:29.097Z,60.52
2019-02-08T06:03:19.635Z,60.59
2019-02-08T06:06:08.552Z,60.78
2019-02-08T06:08:57.441Z,60.77
2019-02-08T06:11:46.374Z,60.79
2019-02-08T06:14:35.248Z,60.93
2019-02-08T06:17:24.100Z,60.97
2019-02-08T06:20:33.837Z,61.00
2019-02-08T06:23:22.809Z,61.05
2019-02-08T06:26:04.750Z,61.09
2019-02-08T06:28:53.665Z,61.24
2019-02-08T06:31:42.486Z,61.18
2019-02-08T06:34:31.351Z,61.17
2019-02-08T06:37:20.270Z,61.24
2019-02-08T06:40:29.974Z,61.21
2019-02-08T06:43:18.895Z,61.13
2019-02-08T06:46:07.767Z,61.18
2019-02-08T06:48:56.671Z,61.13
2019-02-08T06:51:45.514Z,61.15
2019-02-08T06:54:34.313Z,61.11
2019-02-08T07:09:34.304Z,60.99
2019-02-08T07:12:18.028Z,60.94
2019-02-08T07:21:22.786Z,60.81
2019-02-08T07:27:26.685Z,60.75
2019-02-08T07:39:44.000Z,60.68
2019-02-08T07:42:44.821Z,60.55
2019-02-08T07:46:13.615Z,60.64
2019-02-08T07:55:13.992Z,60.49
2019-02-08T08:04:48.133Z,60.19
2019-02-08T08:07:36.810Z,60.43
2019-02-08T08:16:51.553Z,60.24
2019-02-08T08:19:59.452Z,60.18
2019-02-08T08:23:07.402Z,60.12
2019-02-08T08:26:36.167Z,60.19
2019-02-08T08:29:19.376Z,60.15
2019-02-08T08:32:02.960Z,60.15
2019-02-08T08:35:30.495Z,60.12
2019-02-08T08:38:40.283Z,59.86
2019-02-08T08:42:07.866Z,59.97
2019-02-08T08:45:17.665Z,59.71
2019-02-08T08:48:27.414Z,59.80
2019-02-08T08:51:37.126Z,59.69
2019-02-08T08:55:04.668Z,59.57
2019-02-08T08:58:14.395Z,59.56
2019-02-08T09:01:41.991Z,59.65
2019-02-08T09:04:51.743Z,59.36
2019-02-08T09:08:19.279Z,59.36
2019-02-08T09:11:46.807Z,59.51
2019-02-08T09:14:56.534Z,59.28
2019-02-08T09:18:06.283Z,59.31
2019-02-08T09:21:15.998Z,59.34
2019-02-08T09:24:25.815Z,59.02
2019-02-08T09:27:33.734Z,59.22
2019-02-08T09:30:43.515Z,59.10
2019-02-08T09:33:53.323Z,59.01
2019-02-08T09:37:03.128Z,58.96
2019-02-08T09:40:30.675Z,58.78
2019-02-08T09:43:40.435Z,58.85
2019-02-08T09:47:07.994Z,59.01
2019-02-08T09:50:17.877Z,58.82
2019-02-08T09:53:45.533Z,58.85
2019-02-08T09:56:55.367Z,58.80
2019-02-08T09:59:56.134Z,58.78
2019-02-08T10:03:23.684Z,58.67
2019-02-08T10:06:55.139Z,58.80
2019-02-08T10:10:22.877Z,58.44
2019-02-08T10:13:32.777Z,58.40
2019-02-08T10:17:00.337Z,58.17
2019-02-08T10:20:27.880Z,58.47
2019-02-08T10:23:37.722Z,58.10
2019-02-08T10:27:05.271Z,58.04
2019-02-08T10:33:52.443Z,57.91
2019-02-08T10:37:02.155Z,57.93
2019-02-08T10:40:12.015Z,57.88
2019-02-08T10:43:21.843Z,58.02
2019-02-08T10:46:30.238Z,58.15
2019-02-08T10:49:39.955Z,58.08
2019-02-08T10:53:07.524Z,57.99
2019-02-08T10:56:17.284Z,57.97
2019-02-08T10:59:44.941Z,57.98
2019-02-08T11:03:12.539Z,57.80
2019-02-08T11:06:22.282Z,57.80
2019-02-08T11:09:49.820Z,57.88
2019-02-08T11:13:17.398Z,57.81
2019-02-08T11:16:44.892Z,57.84
2019-02-08T11:19:33.619Z,57.66
2019-02-08T11:22:03.109Z,57.53
2019-02-08T11:24:52.129Z,57.75
2019-02-08T11:27:34.112Z,57.52
2019-02-08T11:30:22.988Z,57.58
2019-02-08T11:33:11.922Z,57.65
2019-02-08T11:36:00.851Z,57.49
2019-02-08T11:38:49.727Z,57.37
2019-02-08T11:41:38.677Z,57.49
2019-02-08T11:44:27.634Z,57.17
2019-02-08T11:47:16.541Z,57.25
2019-02-08T11:50:26.256Z,57.07
2019-02-08T11:53:15.195Z,57.09
2019-02-08T11:56:04.375Z,57.41
2019-02-08T11:58:53.267Z,57.23
2019-02-08T12:04:38.048Z,57.25
2019-02-08T12:07:26.997Z,56.92
2019-02-08T12:10:16.002Z,57.05
2019-02-08T12:13:04.895Z,56.77
2019-02-08T12:15:53.827Z,56.76
2019-02-08T12:18:42.640Z,56.80
2019-02-08T12:21:31.560Z,56.84
2019-02-08T12:24:20.451Z,56.81
2019-02-08T12:27:09.409Z,56.81
2019-02-08T12:29:38.882Z,57.06
2019-02-08T12:32:27.728Z,56.95
2019-02-08T12:35:16.665Z,56.84
2019-02-08T12:38:05.608Z,56.81
2019-02-08T12:40:54.529Z,57.11
2019-02-08T12:43:43.497Z,56.96
2019-02-08T12:46:32.449Z,56.90
2019-02-08T12:49:21.326Z,56.90
2019-02-08T12:52:10.140Z,56.74
2019-02-08T12:54:58.983Z,56.68
2019-02-08T12:57:47.999Z,56.93
2019-02-08T13:00:36.935Z,56.87
2019-02-08T13:03:25.792Z,57.00
2019-02-08T13:06:14.650Z,57.08
2019-02-08T13:12:14.436Z,56.90
2019-02-08T13:18:18.432Z,56.82
2019-02-08T13:21:07.333Z,56.55
2019-02-08T13:23:36.853Z,56.77
2019-02-08T13:26:25.789Z,56.94
2019-02-08T13:29:07.117Z,56.98
2019-02-08T13:31:56.048Z,57.09
2019-02-08T13:34:44.975Z,57.17
2019-02-08T13:37:33.844Z,57.27
2019-02-08T13:40:42.150Z,57.41
2019-02-08T13:43:31.091Z,57.41
2019-02-08T13:46:19.985Z,57.66
2019-02-08T13:49:08.831Z,57.70
2019-02-08T13:51:57.664Z,57.80
2019-02-08T13:54:46.584Z,57.77
2019-02-08T13:57:35.130Z,57.80
2019-02-08T14:00:43.362Z,57.93
2019-02-08T14:03:32.339Z,57.95
2019-02-08T14:06:21.214Z,57.97
2019-02-08T14:09:10.306Z,58.05
2019-02-08T14:11:59.168Z,58.03
2019-02-08T14:14:48.137Z,58.13
2019-02-08T14:17:37.340Z,58.16
2019-02-08T14:20:47.260Z,58.25
2019-02-08T14:23:39.150Z,58.29
2019-02-08T14:26:28.041Z,58.33
2019-02-08T14:29:09.812Z,58.39
2019-02-08T14:31:58.862Z,58.31
2019-02-08T14:35:02.124Z,58.28
2019-02-08T14:37:38.579Z,58.31
2019-02-08T14:40:48.417Z,58.41
2019-02-08T14:43:37.419Z,58.44
2019-02-08T14:46:26.376Z,58.50
2019-02-08T14:49:15.327Z,58.64
2019-02-08T14:52:04.325Z,58.38
2019-02-08T14:54:53.183Z,58.32
2019-02-08T14:57:42.186Z,58.30
2019-02-08T15:03:26.616Z,58.25
2019-02-08T15:06:08.257Z,58.29
2019-02-08T15:09:09.148Z,58.14
2019-02-08T15:11:47.850Z,58.31
2019-02-08T15:14:36.790Z,58.23
2019-02-08T15:17:25.707Z,58.30
2019-02-08T15:20:34.578Z,58.24
2019-02-08T15:23:23.378Z,58.27
2019-02-08T15:26:12.304Z,58.25
2019-02-08T15:31:38.004Z,58.22
2019-02-08T15:34:07.683Z,58.11
2019-02-08T15:37:15.715Z,58.21
2019-02-08T15:40:25.441Z,58.13
2019-02-08T15:43:14.930Z,58.22
2019-02-08T15:46:04.105Z,58.19
2019-02-08T15:48:33.757Z,58.14
2019-02-08T15:51:22.669Z,58.20
2019-02-08T15:54:11.513Z,58.29
2019-02-08T15:57:00.389Z,58.50
2019-02-08T15:59:49.229Z,58.44
2019-02-08T16:02:38.100Z,58.38
2019-02-08T16:05:47.846Z,58.35
2019-02-08T16:08:36.833Z,58.33
2019-02-08T16:11:25.757Z,58.30
2019-02-08T16:14:14.646Z,58.16
2019-02-08T16:17:03.578Z,58.21
2019-02-08T16:19:52.436Z,58.22
2019-02-08T16:22:41.324Z,58.09
2019-02-08T16:25:49.497Z,58.16
2019-02-08T16:28:18.999Z,58.22
2019-02-08T16:30:48.571Z,58.22
2019-02-08T16:33:37.504Z,58.19
2019-02-08T16:36:26.426Z,58.27
2019-02-08T16:38:55.912Z,58.36
2019-02-08T16:41:44.726Z,58.29
2019-02-08T16:44:33.640Z,58.38
2019-02-08T16:47:22.618Z,58.47
2019-02-08T16:50:32.371Z,58.39
2019-02-08T16:53:02.039Z,58.47
2019-02-08T16:55:51.042Z,58.47
2019-02-08T16:58:39.993Z,58.33
2019-02-08T17:01:28.848Z,58.34
2019-02-08T17:04:17.721Z,58.14
2019-02-08T17:06:47.401Z,58.10
2019-02-08T17:09:36.330Z,58.08
2019-02-08T17:12:05.991Z,58.13
2019-02-08T17:14:54.882Z,57.92
2019-02-08T17:17:43.734Z,57.98
2019-02-08T17:20:51.874Z,57.90
2019-02-08T17:23:21.491Z,58.05
2019-02-08T17:26:10.417Z,58.09
2019-02-08T17:28:39.941Z,58.04
2019-02-08T17:31:28.747Z,57.99
2019-02-08T17:34:17.606Z,58.17
2019-02-08T17:37:06.489Z,58.07
2019-02-08T17:39:55.391Z,58.09
2019-02-08T17:42:44.623Z,58.07
2019-02-08T17:45:33.537Z,57.89
2019-02-08T17:48:22.338Z,58.14
2019-02-08T17:51:11.232Z,57.99
2019-02-08T17:54:00.132Z,57.96
2019-02-08T17:56:29.629Z,57.93
2019-02-08T17:59:18.549Z,57.92
2019-02-08T18:01:48.241Z,57.94
2019-02-08T18:04:37.106Z,57.96
2019-02-08T18:07:25.940Z,57.89
2019-02-08T18:10:35.714Z,57.85
2019-02-08T18:13:24.580Z,57.68
2019-02-08T18:16:13.378Z,57.60
2019-02-08T18:19:02.230Z,57.55
2019-02-08T18:21:51.108Z,57.48
2019-02-08T18:24:39.948Z,57.52
2019-02-08T18:27:22.145Z,57.55
2019-02-08T18:30:32.018Z,57.56
2019-02-08T18:33:20.862Z,57.64
2019-02-08T18:36:09.720Z,57.65
2019-02-08T18:38:58.614Z,57.69
2019-02-08T18:41:47.425Z,57.61
2019-02-08T18:44:36.277Z,57.62
2019-02-08T18:47:06.017Z,57.67
2019-02-08T18:49:54.940Z,57.60
2019-02-08T18:52:43.749Z,57.71
2019-02-08T18:55:32.835Z,57.50
2019-02-08T18:58:21.725Z,57.54
2019-02-08T19:01:10.677Z,57.70
2019-02-08T19:03:59.590Z,57.66
2019-02-08T19:06:41.098Z,57.72
2019-02-08T19:09:22.863Z,57.40
2019-02-08T19:12:11.801Z,57.32
2019-02-08T19:15:00.765Z,57.29
2019-02-08T19:17:49.719Z,57.24
2019-02-08T19:20:38.638Z,57.20
2019-02-08T19:23:27.514Z,56.93
2019-02-08T19:26:16.459Z,57.05
2019-02-08T19:29:05.338Z,57.08
2019-02-08T19:31:46.869Z,56.95
2019-02-08T19:34:35.756Z,56.87
2019-02-08T19:37:24.809Z,56.95
2019-02-08T19:39:54.305Z,56.83
2019-02-08T19:42:43.216Z,56.86
2019-02-08T19:45:32.167Z,56.96
2019-02-08T19:48:21.031Z,57.02
2019-02-08T19:51:09.956Z,56.79
2019-02-08T19:57:08.279Z,56.71
2019-02-08T19:59:37.975Z,56.61
2019-02-08T20:02:26.824Z,56.62
2019-02-08T20:05:36.583Z,56.69
2019-02-08T20:08:25.642Z,56.57
2019-02-08T20:11:14.664Z,56.60
2019-02-08T20:14:24.246Z,56.30
2019-02-08T20:17:13.124Z,56.47
2019-02-08T20:20:02.134Z,56.24
2019-02-08T20:22:51.080Z,56.34
2019-02-08T20:25:40.100Z,55.91
2019-02-08T20:28:29.027Z,56.15
2019-02-08T20:31:18.005Z,56.00
2019-02-08T20:33:59.481Z,56.09
2019-02-08T20:36:48.384Z,55.95
2019-02-08T20:39:37.314Z,56.02
2019-02-08T20:42:26.215Z,56.07
2019-02-08T20:45:35.974Z,55.97
2019-02-08T20:48:24.924Z,55.84
2019-02-08T20:51:26.081Z,55.85
2019-02-08T20:57:33.113Z,55.82
2019-02-08T21:00:42.916Z,55.75
2019-02-08T21:03:31.857Z,55.86
2019-02-08T21:06:20.687Z,55.90
2019-02-08T21:09:30.428Z,55.78
2019-02-08T21:12:19.241Z,55.64
2019-02-08T21:15:29.003Z,55.72
2019-02-08T21:18:17.808Z,55.68
2019-02-08T21:20:59.383Z,55.79
2019-02-08T21:23:48.284Z,55.60
2019-02-08T21:26:37.181Z,55.83
2019-02-08T21:29:26.122Z,55.69
2019-02-08T21:32:15.029Z,55.71
2019-02-08T21:38:12.485Z,55.76
2019-02-08T21:41:01.322Z,55.54
2019-02-08T21:43:50.274Z,55.71
2019-02-08T21:46:39.078Z,55.60
2019-02-08T21:49:27.919Z,55.56
2019-02-08T21:52:16.817Z,55.53
2019-02-08T21:55:26.680Z,55.76
2019-02-08T21:58:15.506Z,55.88
2019-02-08T22:01:05.338Z,55.96
2019-02-08T22:03:54.168Z,55.65
2019-02-08T22:06:43.080Z,55.74
2019-02-08T22:09:32.124Z,55.73
2019-02-08T22:12:20.983Z,55.81
2019-02-08T22:15:30.327Z,55.67
2019-02-08T22:18:19.246Z,55.74
2019-02-08T22:21:08.096Z,55.60
2019-02-08T22:23:56.921Z,55.76
2019-02-08T22:26:45.763Z,55.43
2019-02-08T22:29:34.649Z,55.38
2019-02-08T22:32:23.577Z,55.31
2019-02-08T22:35:07.091Z,55.00
2019-02-08T22:37:56.029Z,55.30
2019-02-08T22:40:44.911Z,55.19
2019-02-08T22:43:34.165Z,55.10
2019-02-08T22:46:24.402Z,55.05
2019-02-08T22:49:13.262Z,55.08
2019-02-08T22:52:02.092Z,54.74
2019-02-08T22:54:50.974Z,54.70
2019-02-08T22:57:39.823Z,54.63
2019-02-08T23:01:07.371Z,54.63
2019-02-08T23:03:49.682Z,54.69
2019-02-08T23:06:44.649Z,54.77
2019-02-08T23:09:29.215Z,54.73
2019-02-08T23:12:18.018Z,54.41
2019-02-08T23:15:27.780Z,54.45
2019-02-08T23:18:16.613Z,54.56
2019-02-08T23:21:26.421Z,54.76
2019-02-08T23:24:15.378Z,54.39
2019-02-08T23:27:06.831Z,54.57
2019-02-08T23:30:16.573Z,54.54
2019-02-08T23:33:08.042Z,54.63
2019-02-08T23:35:56.894Z,54.64
2019-02-08T23:38:45.831Z,54.57
2019-02-08T23:41:34.778Z,54.34
2019-02-08T23:44:23.642Z,54.31
2019-02-08T23:47:12.495Z,54.40
2019-02-08T23:50:01.483Z,54.50
2019-02-08T23:52:31.143Z,54.33
2019-02-08T23:55:40.898Z,54.23
2019-02-08T23:58:29.807Z,54.27
